Lutcher, Louisiana
Current Conditions -  °F | °C
As of 2:35 AM on Tuesday 27 Jan 2015 (Local Time) from K1L0 Reporting Station
Clear Clear  
Wind Chill: 48°   Ceiling: Unl
Heat Index: 48°   Visibility: 10mi
Dew Point: 42°   Wind: 3mph
Humidity: 80%   Direction: 250°WSW
Pressure: 30.09"   Gusts: NA
Location:  30.04°N, 90.7°W
Report Text: K1L0 270835Z AUTO 25003KT 10SM CLR 09/06 A3009 RMK AO2 T00880056
Loading
Personal Weather Stations






























Interactive Weather Map New forecast layout! Learn more

10-Day Weather Forecast

Advertisements
Track Severe Weather on mobile